createdAt,value
2019-01-11T00:01:12.610Z,4.43
2019-01-11T00:03:46.384Z,7.13
2019-01-11T00:06:20.113Z,6.00
2019-01-11T00:08:53.859Z,6.83
2019-01-11T00:11:27.744Z,3.70
2019-01-11T00:14:01.451Z,5.97
2019-01-11T00:16:35.101Z,6.40
2019-01-11T00:19:08.848Z,4.40
2019-01-11T00:21:42.684Z,5.37
2019-01-11T00:24:16.346Z,5.23
2019-01-11T00:26:51.918Z,4.60
2019-01-11T00:29:25.796Z,6.73
2019-01-11T00:31:59.467Z,6.20
2019-01-11T00:34:33.210Z,4.93
2019-01-11T00:37:07.624Z,3.13
2019-01-11T00:39:41.361Z,4.60
2019-01-11T00:42:16.066Z,3.37
2019-01-11T00:44:49.772Z,5.27
2019-01-11T00:47:23.645Z,4.57
2019-01-11T00:49:57.301Z,6.57
2019-01-11T00:52:31.027Z,5.97
2019-01-11T00:55:06.045Z,5.60
2019-01-11T00:57:39.427Z,5.90
2019-01-11T01:00:19.748Z,5.73
2019-01-11T01:02:53.495Z,4.40
2019-01-11T01:05:27.280Z,5.33
2019-01-11T01:08:01.040Z,5.37
2019-01-11T01:10:34.731Z,9.33
2019-01-11T01:13:09.322Z,6.53
2019-01-11T01:15:43.031Z,6.20
2019-01-11T01:18:17.476Z,10.00
2019-01-11T01:20:51.297Z,6.73
2019-01-11T01:23:24.973Z,6.87
2019-01-11T01:25:58.670Z,5.73
2019-01-11T01:28:32.482Z,5.50
2019-01-11T01:31:06.231Z,5.63
2019-01-11T01:33:39.990Z,5.33
2019-01-11T01:36:14.556Z,4.13
2019-01-11T01:38:48.212Z,8.67
2019-01-11T01:41:22.082Z,5.57
2019-01-11T01:43:55.826Z,8.00
2019-01-11T01:46:29.722Z,7.53
2019-01-11T01:49:03.342Z,6.47
2019-01-11T01:51:37.326Z,8.10
2019-01-11T01:54:11.092Z,7.20
2019-01-11T01:56:45.676Z,6.20
2019-01-11T01:59:19.357Z,8.53
2019-01-11T02:01:53.895Z,7.03
2019-01-11T02:04:27.602Z,6.37
2019-01-11T02:07:01.456Z,8.00
2019-01-11T02:09:35.338Z,9.00
2019-01-11T02:12:09.262Z,6.33
2019-01-11T02:14:43.046Z,6.17
2019-01-11T02:17:16.840Z,7.17
2019-01-11T02:19:50.515Z,5.20
2019-01-11T02:22:24.378Z,7.17
2019-01-11T02:24:58.148Z,7.17
2019-01-11T02:27:31.957Z,5.30
2019-01-11T02:30:06.413Z,6.80
2019-01-11T02:32:40.131Z,7.23
2019-01-11T02:35:14.645Z,6.67
2019-01-11T02:37:48.410Z,7.37
2019-01-11T02:40:22.146Z,5.40
2019-01-11T02:42:55.929Z,6.80
2019-01-11T02:45:29.602Z,5.40
2019-01-11T02:48:03.375Z,4.77
2019-01-11T02:50:37.249Z,7.97
2019-01-11T02:53:11.160Z,5.30
2019-01-11T02:55:44.986Z,6.23
2019-01-11T02:58:18.660Z,6.77
2019-01-11T03:00:52.343Z,7.00
2019-01-11T03:03:26.183Z,6.30
2019-01-11T03:05:59.891Z,6.20
2019-01-11T03:08:33.643Z,5.87
2019-01-11T03:11:08.366Z,5.40
2019-01-11T03:13:41.993Z,6.10
2019-01-11T03:16:15.735Z,4.57
2019-01-11T03:18:49.472Z,5.07
2019-01-11T03:21:23.919Z,4.30
2019-01-11T03:23:59.132Z,4.90
2019-01-11T03:26:32.923Z,6.97
2019-01-11T03:29:06.794Z,6.57
2019-01-11T03:31:41.324Z,5.23
2019-01-11T03:34:15.038Z,4.77
2019-01-11T03:36:48.739Z,4.33
2019-01-11T03:39:22.445Z,8.40
2019-01-11T03:41:56.227Z,7.23
2019-01-11T03:44:30.076Z,5.97
2019-01-11T03:47:03.775Z,6.80
2019-01-11T03:49:37.479Z,7.07
2019-01-11T03:52:11.218Z,7.77
2019-01-11T03:54:44.830Z,7.37
2019-01-11T03:57:18.796Z,9.50
2019-01-11T03:59:52.382Z,6.60
2019-01-11T04:02:26.118Z,6.47
2019-01-11T04:04:59.823Z,8.50
2019-01-11T04:07:33.564Z,9.20
2019-01-11T04:10:10.642Z,7.03
2019-01-11T04:12:44.424Z,5.30
2019-01-11T04:15:18.073Z,5.63
2019-01-11T04:17:52.699Z,7.93
2019-01-11T04:20:26.406Z,9.70
2019-01-11T04:23:00.160Z,7.30
2019-01-11T04:25:33.913Z,5.20
2019-01-11T04:28:07.791Z,4.83
2019-01-11T04:30:41.473Z,8.10
2019-01-11T04:33:15.214Z,7.13
2019-01-11T04:35:49.046Z,6.37
2019-01-11T04:38:23.576Z,7.83
2019-01-11T04:40:57.313Z,8.77
2019-01-11T04:43:31.205Z,6.80
2019-01-11T04:46:04.870Z,6.37
2019-01-11T04:48:38.635Z,9.93
2019-01-11T04:51:12.436Z,8.03
2019-01-11T04:53:47.025Z,7.60
2019-01-11T04:56:20.753Z,6.90
2019-01-11T04:58:54.575Z,9.00
2019-01-11T05:01:30.133Z,9.00
2019-01-11T05:04:04.030Z,8.53
2019-01-11T05:06:37.784Z,8.77
2019-01-11T05:09:11.717Z,10.23
2019-01-11T05:11:45.351Z,7.60
2019-01-11T05:14:19.060Z,9.80
2019-01-11T05:16:54.001Z,11.00
2019-01-11T05:19:28.555Z,11.40
2019-01-11T05:22:02.324Z,10.63
2019-01-11T05:24:36.694Z,12.90
2019-01-11T05:27:10.613Z,11.60
2019-01-11T05:29:44.475Z,10.10
2019-01-11T05:32:18.200Z,12.13
2019-01-11T05:34:53.554Z,10.67
2019-01-11T05:37:28.082Z,11.90
2019-01-11T05:40:01.779Z,10.23
2019-01-11T05:42:36.271Z,13.47
2019-01-11T05:45:10.786Z,11.20
2019-01-11T05:47:44.719Z,10.70
2019-01-11T05:50:24.067Z,12.27
2019-01-11T05:52:52.521Z,12.60
2019-01-11T05:55:27.177Z,11.30
2019-01-11T05:58:01.576Z,12.57
2019-01-11T06:00:35.293Z,11.07
2019-01-11T06:03:09.043Z,15.43
2019-01-11T06:05:43.007Z,18.60
2019-01-11T06:08:16.813Z,16.00
2019-01-11T06:10:50.569Z,14.57
2019-01-11T06:13:24.444Z,13.23
2019-01-11T06:15:58.090Z,15.23
2019-01-11T06:18:31.908Z,15.93
2019-01-11T06:21:05.707Z,13.63
2019-01-11T06:23:39.647Z,14.50
2019-01-11T06:26:13.348Z,13.33
2019-01-11T06:28:47.339Z,19.50
2019-01-11T06:31:21.038Z,14.47
2019-01-11T06:33:54.969Z,12.83
2019-01-11T06:36:29.574Z,10.77
2019-01-11T06:39:03.328Z,14.97
2019-01-11T06:41:37.891Z,14.77
2019-01-11T06:44:11.623Z,14.87
2019-01-11T06:46:45.309Z,17.57
2019-01-11T06:49:19.735Z,14.17
2019-01-11T06:51:53.557Z,16.87
2019-01-11T06:54:27.277Z,15.07
2019-01-11T06:57:01.073Z,15.43
2019-01-11T06:59:34.853Z,14.30
2019-01-11T07:02:08.426Z,15.43
2019-01-11T07:04:42.985Z,14.27
2019-01-11T07:07:16.709Z,16.13
2019-01-11T07:09:53.374Z,18.23
2019-01-11T07:12:41.777Z,15.17
2019-01-11T07:15:25.815Z,14.97
2019-01-11T07:18:07.991Z,12.63
2019-01-11T07:20:47.620Z,14.57
2019-01-11T07:23:21.323Z,15.77
2019-01-11T07:25:55.817Z,14.73
2019-01-11T07:28:29.540Z,17.13
2019-01-11T07:31:03.452Z,14.47
2019-01-11T07:33:37.373Z,15.97
2019-01-11T07:36:11.244Z,12.83
2019-01-11T07:38:44.866Z,18.23
2019-01-11T07:41:18.660Z,17.60
2019-01-11T07:43:52.372Z,17.83
2019-01-11T07:46:26.067Z,13.43
2019-01-11T07:48:59.664Z,18.77
2019-01-11T07:51:33.321Z,16.30
2019-01-11T07:54:06.987Z,17.03
2019-01-11T07:56:42.891Z,14.03
2019-01-11T07:59:17.427Z,17.20
2019-01-11T08:01:51.086Z,15.07
2019-01-11T08:04:24.877Z,18.80
2019-01-11T08:06:58.753Z,18.23
2019-01-11T08:09:33.376Z,16.43
2019-01-11T08:12:07.193Z,17.97
2019-01-11T08:14:41.025Z,14.00
2019-01-11T08:17:15.592Z,15.40
2019-01-11T08:19:49.356Z,14.70
2019-01-11T08:22:23.093Z,17.27
2019-01-11T08:24:57.031Z,21.60
2019-01-11T08:27:31.596Z,17.73
2019-01-11T08:30:06.122Z,20.37
2019-01-11T08:32:39.864Z,17.50
2019-01-11T08:35:13.735Z,18.07
2019-01-11T08:37:47.443Z,15.87
2019-01-11T08:40:21.164Z,18.23
2019-01-11T08:42:54.721Z,21.57
2019-01-11T08:45:28.423Z,15.67
2019-01-11T08:48:02.936Z,17.40
2019-01-11T08:50:36.874Z,12.13
2019-01-11T08:53:12.349Z,14.60
2019-01-11T08:55:46.073Z,15.80
2019-01-11T08:58:20.730Z,19.17
2019-01-11T09:00:54.560Z,19.80
2019-01-11T09:03:28.394Z,21.63
2019-01-11T09:06:02.087Z,20.90
2019-01-11T09:08:36.580Z,14.73
2019-01-11T09:11:10.288Z,13.53
2019-01-11T09:13:44.927Z,20.37
2019-01-11T09:16:20.721Z,27.13
2019-01-11T09:18:53.060Z,17.07
2019-01-11T09:21:27.666Z,19.17
2019-01-11T09:24:01.367Z,18.13
2019-01-11T09:26:35.119Z,19.67
2019-01-11T09:29:08.813Z,20.13
2019-01-11T09:31:42.497Z,18.40
2019-01-11T09:34:16.321Z,20.87
2019-01-11T09:36:50.112Z,28.00
2019-01-11T09:39:24.000Z,19.30
2019-01-11T09:41:58.527Z,20.53
2019-01-11T09:44:33.037Z,26.73
2019-01-11T09:47:06.747Z,25.90
2019-01-11T09:49:41.274Z,21.47
2019-01-11T09:52:15.800Z,21.87
2019-01-11T09:54:50.287Z,18.80
2019-01-11T09:57:24.001Z,22.43
2019-01-11T09:59:57.801Z,26.13
2019-01-11T10:02:31.572Z,17.37
2019-01-11T10:05:05.338Z,22.80
2019-01-11T10:07:40.690Z,21.67
2019-01-11T10:10:14.425Z,16.27
2019-01-11T10:12:48.068Z,20.10
2019-01-11T10:15:22.718Z,18.17
2019-01-11T10:17:56.426Z,18.83
2019-01-11T10:20:30.108Z,18.27
2019-01-11T10:23:03.781Z,19.67
2019-01-11T10:25:37.535Z,18.67
2019-01-11T10:28:11.249Z,25.10
2019-01-11T10:30:45.041Z,20.10
2019-01-11T10:33:19.555Z,14.90
2019-01-11T10:35:53.290Z,18.67
2019-01-11T10:38:27.041Z,20.10
2019-01-11T10:41:00.859Z,18.00
2019-01-11T10:43:34.710Z,18.97
2019-01-11T10:46:08.635Z,29.60
2019-01-11T10:48:42.537Z,18.37
2019-01-11T10:51:19.080Z,20.50
2019-01-11T10:53:50.168Z,23.80
2019-01-11T10:56:24.035Z,21.83
2019-01-11T10:58:57.746Z,19.90
2019-01-11T11:01:31.479Z,35.20
2019-01-11T11:04:05.231Z,27.23
2019-01-11T11:06:39.746Z,24.83
2019-01-11T11:09:13.516Z,28.70
2019-01-11T11:11:48.130Z,22.80
2019-01-11T11:14:21.823Z,30.80
2019-01-11T11:16:56.844Z,26.47
2019-01-11T11:19:30.663Z,25.57
2019-01-11T11:22:04.473Z,24.30
2019-01-11T11:24:38.191Z,23.50
2019-01-11T11:27:11.782Z,25.47
2019-01-11T11:29:46.579Z,20.57
2019-01-11T11:32:20.383Z,23.30
2019-01-11T11:34:54.110Z,27.23
2019-01-11T11:37:28.593Z,20.63
2019-01-11T11:40:03.104Z,21.43
2019-01-11T11:42:36.901Z,22.17
2019-01-11T11:45:10.538Z,27.40
2019-01-11T11:47:44.442Z,22.20
2019-01-11T11:50:18.156Z,21.30
2019-01-11T11:52:52.696Z,26.53
2019-01-11T11:55:26.481Z,24.73
2019-01-11T11:58:00.286Z,23.67
2019-01-11T12:00:34.712Z,24.60
2019-01-11T12:03:08.424Z,23.87
2019-01-11T12:05:42.160Z,26.77
2019-01-11T12:08:15.802Z,23.23
2019-01-11T12:10:49.545Z,26.30
2019-01-11T12:13:23.287Z,20.13
2019-01-11T12:15:57.179Z,26.30
2019-01-11T12:18:31.015Z,25.90
2019-01-11T12:21:05.517Z,23.57
2019-01-11T12:23:39.877Z,19.67
2019-01-11T12:26:13.690Z,26.73
2019-01-11T12:28:47.521Z,25.30
2019-01-11T12:31:21.219Z,24.13
2019-01-11T12:33:56.426Z,26.70
2019-01-11T12:36:30.130Z,21.53
2019-01-11T12:39:03.885Z,23.13
2019-01-11T12:41:37.692Z,27.97
2019-01-11T12:44:11.433Z,25.50
2019-01-11T12:46:45.236Z,27.60
2019-01-11T12:49:19.994Z,28.63
2019-01-11T12:51:54.067Z,23.07
2019-01-11T12:54:27.517Z,22.63
2019-01-11T12:57:01.106Z,19.27
2019-01-11T12:59:34.863Z,28.60
2019-01-11T13:02:08.749Z,23.40
2019-01-11T13:04:43.350Z,25.80
2019-01-11T13:07:17.884Z,22.57
2019-01-11T13:09:51.580Z,24.73
2019-01-11T13:12:25.955Z,22.43
2019-01-11T13:14:59.244Z,24.47
2019-01-11T13:17:32.996Z,21.53
2019-01-11T13:20:06.861Z,26.13
2019-01-11T13:22:40.578Z,24.80
2019-01-11T13:25:15.223Z,27.20
2019-01-11T13:27:48.939Z,28.90
2019-01-11T13:30:22.668Z,21.90
2019-01-11T13:32:56.531Z,23.63
2019-01-11T13:35:30.352Z,26.40
2019-01-11T13:38:04.045Z,22.33
2019-01-11T13:40:37.809Z,23.40
2019-01-11T13:43:11.567Z,26.37
2019-01-11T13:45:45.276Z,25.73
2019-01-11T13:48:19.080Z,26.60
2019-01-11T13:50:52.922Z,26.07
2019-01-11T13:53:26.766Z,24.70
2019-01-11T13:56:00.489Z,24.93
2019-01-11T13:58:34.324Z,19.80
2019-01-11T14:01:08.200Z,26.03
2019-01-11T14:03:41.881Z,22.87
2019-01-11T14:06:15.526Z,27.70
2019-01-11T14:08:49.328Z,18.33
2019-01-11T14:11:23.130Z,23.67
2019-01-11T14:13:56.971Z,21.80
2019-01-11T14:16:30.837Z,21.57
2019-01-11T14:19:04.441Z,25.17
2019-01-11T14:21:38.252Z,19.90
2019-01-11T14:24:11.964Z,18.90
2019-01-11T14:26:46.573Z,20.30
2019-01-11T14:29:20.297Z,15.77
2019-01-11T14:31:54.095Z,19.37
2019-01-11T14:34:27.793Z,23.13
2019-01-11T14:37:01.709Z,25.50
2019-01-11T14:39:36.320Z,22.03
2019-01-11T14:42:10.052Z,23.43
2019-01-11T14:44:44.757Z,19.30
2019-01-11T14:47:18.528Z,21.70
2019-01-11T14:49:52.384Z,25.17
2019-01-11T14:52:27.108Z,20.10
2019-01-11T14:55:00.813Z,20.90
2019-01-11T14:57:34.736Z,19.83
2019-01-11T15:00:10.430Z,21.23
2019-01-11T15:02:44.989Z,18.83
2019-01-11T15:05:18.742Z,22.93
2019-01-11T15:07:52.592Z,24.93
2019-01-11T15:10:26.355Z,20.10
2019-01-11T15:13:00.996Z,22.47
2019-01-11T15:15:34.749Z,21.57
2019-01-11T15:18:08.595Z,20.97
2019-01-11T15:20:42.129Z,27.60
2019-01-11T15:23:15.949Z,24.07
2019-01-11T15:25:50.781Z,26.77
2019-01-11T15:28:24.738Z,22.43
2019-01-11T15:30:59.317Z,19.17
2019-01-11T15:33:33.034Z,28.60
2019-01-11T15:36:07.030Z,21.37
2019-01-11T15:38:41.659Z,23.37
2019-01-11T15:41:16.281Z,20.23
2019-01-11T15:43:50.081Z,25.23
2019-01-11T15:46:27.720Z,23.87
2019-01-11T15:49:02.563Z,25.90
2019-01-11T15:51:36.325Z,20.67
2019-01-11T15:54:12.186Z,24.50
2019-01-11T15:56:48.764Z,22.43
2019-01-11T15:59:24.530Z,27.60
2019-01-11T16:01:58.165Z,21.13
2019-01-11T16:04:31.944Z,25.07
2019-01-11T16:07:05.680Z,22.43
2019-01-11T16:09:40.617Z,30.47
2019-01-11T16:12:14.386Z,26.60
2019-01-11T16:39:16.861Z,35.47
2019-01-11T16:41:50.588Z,25.40
2019-01-11T16:44:24.373Z,25.30
2019-01-11T16:46:58.773Z,24.80
2019-01-11T16:49:32.492Z,24.53
2019-01-11T16:52:06.221Z,31.70
2019-01-11T16:54:40.021Z,21.50
2019-01-11T16:57:13.828Z,21.97
2019-01-11T16:59:47.584Z,25.20
2019-01-11T17:02:21.312Z,27.70
2019-01-11T17:04:55.043Z,22.17
2019-01-11T17:07:29.655Z,23.83
2019-01-11T17:10:04.240Z,24.90
2019-01-11T17:12:41.774Z,23.87
2019-01-11T17:15:11.586Z,19.57
2019-01-11T17:17:45.262Z,25.40
2019-01-11T17:20:18.983Z,21.80
2019-01-11T17:22:53.322Z,25.73
2019-01-11T17:25:26.340Z,26.27
2019-01-11T17:28:00.012Z,21.80
2019-01-11T17:30:33.708Z,24.10
2019-01-11T17:33:07.539Z,21.87
2019-01-11T17:35:41.913Z,22.50
2019-01-11T17:38:15.705Z,24.20
2019-01-11T17:40:49.432Z,24.17
2019-01-11T17:43:23.969Z,19.53
2019-01-11T17:45:57.730Z,20.53
2019-01-11T17:48:32.212Z,25.80
2019-01-11T17:51:06.728Z,20.60
2019-01-11T17:53:40.425Z,20.30
2019-01-11T17:56:15.081Z,27.20
2019-01-11T17:58:48.916Z,23.37
2019-01-11T18:01:23.395Z,25.77
2019-01-11T18:03:57.910Z,21.03
2019-01-11T18:06:31.665Z,22.83
2019-01-11T18:09:05.412Z,21.97
2019-01-11T18:11:39.120Z,21.47
2019-01-11T18:14:12.933Z,21.90
2019-01-11T18:16:49.088Z,23.17
2019-01-11T18:19:23.572Z,20.60
2019-01-11T18:21:57.348Z,21.33
2019-01-11T18:24:31.305Z,19.57
2019-01-11T18:27:05.656Z,26.03
2019-01-11T18:29:39.381Z,20.57
2019-01-11T18:32:13.340Z,22.40
2019-01-11T18:34:46.964Z,16.70
2019-01-11T18:37:20.751Z,18.47
2019-01-11T18:39:57.791Z,20.13
2019-01-11T18:42:28.240Z,19.07
2019-01-11T18:45:01.852Z,18.03
2019-01-11T18:47:37.988Z,19.37
2019-01-11T18:50:12.917Z,22.10
2019-01-11T18:52:47.429Z,15.80
2019-01-11T18:55:21.208Z,19.50
2019-01-11T18:57:54.965Z,23.33
2019-01-11T19:00:28.967Z,22.23
2019-01-11T19:03:02.737Z,27.60
2019-01-11T19:05:36.398Z,19.30
2019-01-11T19:08:10.776Z,21.57
2019-01-11T19:10:45.300Z,16.53
2019-01-11T19:13:19.072Z,20.87
2019-01-11T19:15:53.513Z,20.00
2019-01-11T19:18:27.234Z,20.50
2019-01-11T19:21:01.017Z,26.20
2019-01-11T19:23:34.838Z,20.10
2019-01-11T19:26:08.581Z,17.50
2019-01-11T19:28:42.451Z,24.97
2019-01-11T19:31:17.074Z,23.53
2019-01-11T19:33:50.879Z,25.37
2019-01-11T19:36:29.301Z,24.80
2019-01-11T19:39:04.060Z,24.47
2019-01-11T19:41:36.783Z,26.37
2019-01-11T19:44:10.468Z,24.90
2019-01-11T19:46:44.130Z,19.43
2019-01-11T19:49:17.888Z,19.13
2019-01-11T19:51:53.229Z,19.57
2019-01-11T19:54:26.844Z,19.47
2019-01-11T19:57:00.688Z,20.40
2019-01-11T19:59:35.297Z,20.77
